createdAt,value
2022-11-24T00:00:20.379Z,89.15
2022-11-24T00:02:51.630Z,89.16
2022-11-24T00:05:23.024Z,89.32
2022-11-24T00:07:54.013Z,89.36
2022-11-24T00:10:25.524Z,89.25
2022-11-24T00:12:56.004Z,89.20
2022-11-24T00:15:26.447Z,89.04
2022-11-24T00:17:57.012Z,89.16
2022-11-24T00:20:27.511Z,89.26
2022-11-24T00:22:58.035Z,89.22
2022-11-24T00:25:28.592Z,89.22
2022-11-24T00:27:59.247Z,89.42
2022-11-24T00:30:29.644Z,89.36
2022-11-24T00:33:00.174Z,89.40
2022-11-24T00:35:30.552Z,89.36
2022-11-24T00:38:01.013Z,89.28
2022-11-24T00:40:34.956Z,89.32
2022-11-24T00:43:05.665Z,89.24
2022-11-24T00:45:36.208Z,89.08
2022-11-24T00:48:07.036Z,89.14
2022-11-24T00:50:37.622Z,89.04
2022-11-24T00:53:08.006Z,89.13
2022-11-24T00:55:38.475Z,89.35
2022-11-24T00:58:08.833Z,89.46
2022-11-24T01:00:39.201Z,89.32
2022-11-24T01:03:09.655Z,89.24
2022-11-24T01:05:40.794Z,89.18
2022-11-24T01:08:11.557Z,89.12
2022-11-24T01:10:42.101Z,89.14
2022-11-24T01:13:13.326Z,89.06
2022-11-24T01:15:43.812Z,89.22
2022-11-24T01:18:14.279Z,89.36
2022-11-24T01:20:44.681Z,89.47
2022-11-24T01:23:15.189Z,89.35
2022-11-24T01:25:45.630Z,89.22
2022-11-24T01:28:16.197Z,89.20
2022-11-24T01:30:47.421Z,89.06
2022-11-24T01:33:17.864Z,89.13
2022-11-24T01:35:48.356Z,89.18
2022-11-24T01:38:18.803Z,89.24
2022-11-24T01:40:51.027Z,89.34
2022-11-24T01:43:22.472Z,89.54
2022-11-24T01:46:03.858Z,89.50
2022-11-24T01:48:37.757Z,89.49
2022-11-24T01:51:11.643Z,89.57
2022-11-24T01:53:45.590Z,89.61
2022-11-24T01:56:16.735Z,89.62
2022-11-24T01:58:50.497Z,89.75
2022-11-24T02:01:20.922Z,89.84
2022-11-24T02:03:52.050Z,89.92
2022-11-24T02:06:23.899Z,89.70
2022-11-24T02:08:58.683Z,89.61
2022-11-24T02:11:31.962Z,89.45
2022-11-24T02:14:02.600Z,89.39
2022-11-24T02:16:33.236Z,89.32
2022-11-24T02:19:04.152Z,89.18
2022-11-24T02:21:34.494Z,89.04
2022-11-24T02:24:11.187Z,88.80
2022-11-24T02:26:45.030Z,88.99
2022-11-24T02:29:16.437Z,89.19
2022-11-24T02:31:49.955Z,89.25
2022-11-24T02:34:23.193Z,89.13
2022-11-24T02:36:53.710Z,88.96
2022-11-24T02:39:24.617Z,88.93
2022-11-24T02:42:02.340Z,89.15
2022-11-24T02:44:35.953Z,89.16
2022-11-24T02:47:08.912Z,89.31
2022-11-24T02:49:41.874Z,89.42
2022-11-24T02:52:10.830Z,89.35
2022-11-24T02:54:41.176Z,89.36
2022-11-24T02:57:12.154Z,89.60
2022-11-24T02:59:44.915Z,89.47
2022-11-24T03:02:15.400Z,89.51
2022-11-24T03:04:47.906Z,89.44
2022-11-24T03:07:19.807Z,89.31
2022-11-24T03:09:50.272Z,89.46
2022-11-24T03:12:20.651Z,89.47
2022-11-24T03:14:51.393Z,89.60
2022-11-24T03:17:21.784Z,89.76
2022-11-24T03:19:52.300Z,90.01
2022-11-24T03:22:22.729Z,89.94
2022-11-24T03:24:53.217Z,90.16
2022-11-24T03:27:23.585Z,90.57
2022-11-24T03:29:54.145Z,90.99
2022-11-24T03:32:24.737Z,91.20
2022-11-24T03:34:55.235Z,91.33
2022-11-24T03:37:25.664Z,91.45
2022-11-24T03:39:56.891Z,91.32
2022-11-24T03:42:27.328Z,91.12
2022-11-24T03:44:57.796Z,91.04
2022-11-24T03:47:28.286Z,91.15
2022-11-24T03:49:58.687Z,91.06
2022-11-24T03:52:29.075Z,91.05
2022-11-24T03:54:59.497Z,91.00
2022-11-24T03:57:32.398Z,90.92
2022-11-24T04:00:04.833Z,91.02
2022-11-24T04:02:35.505Z,91.02
2022-11-24T04:05:06.806Z,91.10
2022-11-24T04:07:37.287Z,91.29
2022-11-24T04:10:09.266Z,91.53
2022-11-24T04:12:45.469Z,91.83
2022-11-24T04:15:19.445Z,92.12
2022-11-24T04:17:50.891Z,92.27
2022-11-24T04:20:21.416Z,92.25
2022-11-24T04:22:52.391Z,92.17
2022-11-24T04:25:22.858Z,92.17
2022-11-24T04:27:55.690Z,92.16
2022-11-24T04:30:27.548Z,92.09
2022-11-24T04:32:58.162Z,92.25
2022-11-24T04:35:28.568Z,92.22
2022-11-24T04:37:59.213Z,92.16
2022-11-24T04:40:30.078Z,91.96
2022-11-24T04:43:00.510Z,91.76
2022-11-24T04:45:30.986Z,91.64
2022-11-24T04:48:01.342Z,91.56
2022-11-24T04:50:31.835Z,91.54
2022-11-24T04:53:02.535Z,91.49
2022-11-24T04:55:32.952Z,91.53
2022-11-24T04:58:03.415Z,91.40
2022-11-24T05:00:33.840Z,91.34
2022-11-24T05:03:04.451Z,91.18
2022-11-24T05:05:34.917Z,91.19
2022-11-24T05:08:05.716Z,91.20
2022-11-24T05:10:36.806Z,91.11
2022-11-24T05:13:08.793Z,91.13
2022-11-24T05:15:41.328Z,91.12
2022-11-24T05:18:15.306Z,91.10
2022-11-24T05:20:46.082Z,91.05
2022-11-24T05:23:16.549Z,91.06
2022-11-24T05:25:47.980Z,91.05
2022-11-24T05:28:18.686Z,91.09
2022-11-24T05:30:49.256Z,91.02
2022-11-24T05:33:20.167Z,91.04
2022-11-24T05:35:51.256Z,91.16
2022-11-24T05:38:22.549Z,91.12
2022-11-24T05:40:53.046Z,91.11
2022-11-24T05:43:24.690Z,91.10
2022-11-24T05:45:55.141Z,91.25
2022-11-24T05:48:25.567Z,91.27
2022-11-24T05:51:00.069Z,91.28
2022-11-24T05:53:30.473Z,91.13
2022-11-24T05:56:03.330Z,91.04
2022-11-24T05:58:33.829Z,91.04
2022-11-24T06:01:08.300Z,91.16
2022-11-24T06:03:39.440Z,91.08
2022-11-24T06:06:10.065Z,91.10
2022-11-24T06:08:40.412Z,90.94
2022-11-24T06:11:20.505Z,90.90
2022-11-24T06:13:51.042Z,90.94
2022-11-24T06:16:21.695Z,90.93
2022-11-24T06:18:52.199Z,91.07
2022-11-24T06:21:22.658Z,91.01
2022-11-24T06:23:54.817Z,90.91
2022-11-24T06:26:25.392Z,90.89
2022-11-24T06:28:55.880Z,90.95
2022-11-24T06:31:26.321Z,91.09
2022-11-24T06:33:56.899Z,91.19
2022-11-24T06:36:27.882Z,91.05
2022-11-24T06:38:58.240Z,91.03
2022-11-24T06:41:28.724Z,90.94
2022-11-24T06:43:59.250Z,91.16
2022-11-24T06:46:29.661Z,91.21
2022-11-24T06:49:00.653Z,91.32
2022-11-24T06:51:31.083Z,91.12
2022-11-24T06:54:01.788Z,91.06
2022-11-24T06:56:32.292Z,91.02
2022-11-24T06:59:02.843Z,91.04
2022-11-24T07:01:33.373Z,90.97
2022-11-24T07:04:04.546Z,91.02
2022-11-24T07:06:34.976Z,91.04
2022-11-24T07:09:05.973Z,91.07
2022-11-24T07:11:36.510Z,91.05
2022-11-24T07:14:07.570Z,90.99
2022-11-24T07:16:38.315Z,91.02
2022-11-24T07:19:09.812Z,91.01
2022-11-24T07:21:40.764Z,91.15
2022-11-24T07:24:11.499Z,91.16
2022-11-24T07:26:41.884Z,91.17
2022-11-24T07:29:12.279Z,91.24
2022-11-24T07:31:42.747Z,91.19
2022-11-24T07:34:14.774Z,91.20
2022-11-24T07:36:45.435Z,91.28
2022-11-24T07:39:15.833Z,91.30
2022-11-24T07:41:46.157Z,91.31
2022-11-24T07:44:16.520Z,91.38
2022-11-24T07:46:47.012Z,91.40
2022-11-24T07:49:17.525Z,91.35
2022-11-24T07:51:48.011Z,91.36
2022-11-24T07:54:18.860Z,91.42
2022-11-24T07:56:51.684Z,91.33
2022-11-24T07:59:22.083Z,91.42
2022-11-24T08:01:52.555Z,91.45
2022-11-24T08:04:23.353Z,91.44
2022-11-24T08:06:53.736Z,91.35
2022-11-24T08:09:24.368Z,91.35
2022-11-24T08:11:54.755Z,91.37
2022-11-24T08:14:25.162Z,91.32
2022-11-24T08:16:55.785Z,91.31
2022-11-24T08:19:26.439Z,91.18
2022-11-24T08:21:56.833Z,91.30
2022-11-24T08:24:27.522Z,91.31
2022-11-24T08:26:57.854Z,91.36
2022-11-24T08:29:31.763Z,91.39
2022-11-24T08:32:02.246Z,91.44
2022-11-24T08:34:33.323Z,91.33
2022-11-24T08:37:05.702Z,91.38
2022-11-24T08:39:36.476Z,91.20
2022-11-24T08:42:07.097Z,91.04
2022-11-24T08:44:37.895Z,90.98
2022-11-24T08:47:08.532Z,90.84
2022-11-24T08:49:39.553Z,90.88
2022-11-24T08:52:10.606Z,90.98
2022-11-24T08:54:44.323Z,90.97
2022-11-24T08:57:20.305Z,90.99
2022-11-24T08:59:52.780Z,90.87
2022-11-24T09:02:23.383Z,90.65
2022-11-24T09:04:54.255Z,90.43
2022-11-24T09:07:24.974Z,90.30
2022-11-24T09:09:55.466Z,90.03
2022-11-24T09:12:25.924Z,89.87
2022-11-24T09:14:56.390Z,89.77
2022-11-24T09:17:26.868Z,89.77
2022-11-24T09:19:57.421Z,89.57
2022-11-24T09:22:27.859Z,89.21
2022-11-24T09:24:58.410Z,88.96
2022-11-24T09:27:29.580Z,88.89
2022-11-24T09:30:00.147Z,88.95
2022-11-24T09:32:31.325Z,88.98
2022-11-24T09:35:02.027Z,88.82
2022-11-24T09:37:36.196Z,88.68
2022-11-24T09:40:08.399Z,88.87
2022-11-24T09:42:49.297Z,88.85
2022-11-24T09:51:25.096Z,88.12
2022-11-24T09:53:55.019Z,88.19
2022-11-24T09:56:27.631Z,87.93
2022-11-24T09:59:02.665Z,87.38
2022-11-24T10:01:35.085Z,87.15
2022-11-24T10:04:10.937Z,86.79
2022-11-24T10:06:45.883Z,86.24
2022-11-24T10:09:29.469Z,86.15
2022-11-24T10:12:03.353Z,85.72
2022-11-24T10:14:47.990Z,85.91
2022-11-24T10:17:30.263Z,86.01
2022-11-24T10:20:06.742Z,85.83
2022-11-24T10:22:46.426Z,86.03
2022-11-24T10:25:22.369Z,85.93
2022-11-24T10:27:59.875Z,85.93
2022-11-24T10:30:30.614Z,84.99
2022-11-24T10:33:05.039Z,84.45
2022-11-24T10:35:40.327Z,85.11
2022-11-24T10:38:17.729Z,84.96
2022-11-24T10:40:58.269Z,84.48
2022-11-24T10:43:29.979Z,84.44
2022-11-24T10:46:07.013Z,84.65
2022-11-24T10:48:42.756Z,84.28
2022-11-24T10:51:53.702Z,83.90
2022-11-24T10:54:25.654Z,83.63
2022-11-24T10:56:57.964Z,83.70
2022-11-24T10:59:35.887Z,83.92
2022-11-24T11:02:33.944Z,83.71
2022-11-24T11:05:27.452Z,83.32
2022-11-24T11:08:11.029Z,83.43
2022-11-24T11:10:39.983Z,82.92
2022-11-24T11:13:25.448Z,82.03
2022-11-24T11:15:56.104Z,81.05
2022-11-24T11:18:31.631Z,79.93
2022-11-24T11:21:03.655Z,77.66
2022-11-24T11:23:36.191Z,75.98
2022-11-24T11:26:33.482Z,75.42
2022-11-24T11:34:59.118Z,71.86
2022-11-24T11:37:32.191Z,71.37
2022-11-24T11:40:03.511Z,71.59
2022-11-24T11:43:01.403Z,72.54
2022-11-24T11:45:39.252Z,72.42
2022-11-24T11:48:25.930Z,72.74
2022-11-24T11:51:22.334Z,72.31
2022-11-24T11:53:57.929Z,72.65
2022-11-24T11:56:31.180Z,72.32
2022-11-24T11:59:25.151Z,70.75
2022-11-24T12:02:19.822Z,71.29
2022-11-24T12:04:54.720Z,71.82
2022-11-24T12:07:48.654Z,71.99
2022-11-24T12:10:26.372Z,72.16
2022-11-24T12:13:08.379Z,72.43
2022-11-24T12:15:40.879Z,71.77
2022-11-24T12:18:55.820Z,71.72
2022-11-24T12:21:26.014Z,71.91
2022-11-24T12:24:10.648Z,71.53
2022-11-24T12:26:45.141Z,71.00
2022-11-24T12:29:32.272Z,71.78
2022-11-24T12:32:08.508Z,72.08
2022-11-24T12:34:46.637Z,71.70
2022-11-24T12:37:29.799Z,71.59
2022-11-24T12:40:01.950Z,70.49
2022-11-24T12:42:41.077Z,70.06
2022-11-24T12:45:17.090Z,70.15
2022-11-24T12:48:04.756Z,69.75
2022-11-24T12:50:38.680Z,69.55
2022-11-24T12:53:15.580Z,69.63
2022-11-24T12:55:46.383Z,69.53
2022-11-24T12:58:21.820Z,68.76
2022-11-24T13:01:03.710Z,69.21
2022-11-24T13:03:41.021Z,69.22
2022-11-24T13:06:16.515Z,69.55
2022-11-24T13:08:47.147Z,68.81
2022-11-24T13:11:43.997Z,68.09
2022-11-24T13:14:30.019Z,68.76
2022-11-24T13:19:52.317Z,68.73
2022-11-24T13:22:27.148Z,68.77
2022-11-24T13:25:16.269Z,68.29
2022-11-24T13:27:52.837Z,68.32
2022-11-24T13:30:59.203Z,67.77
2022-11-24T13:33:34.851Z,68.15
2022-11-24T13:36:31.835Z,68.32
2022-11-24T13:39:03.356Z,68.30
2022-11-24T13:42:08.541Z,68.86
2022-11-24T13:44:52.547Z,69.02
2022-11-24T13:47:39.504Z,70.24
2022-11-24T13:50:14.143Z,71.07
2022-11-24T13:52:50.843Z,71.16
2022-11-24T13:55:31.201Z,71.80
2022-11-24T13:58:06.088Z,72.30
2022-11-24T14:00:38.094Z,70.88
2022-11-24T14:03:15.580Z,70.53
2022-11-24T14:05:53.951Z,69.86
2022-11-24T14:08:27.459Z,69.03
2022-11-24T14:10:59.262Z,68.78
2022-11-24T14:13:31.221Z,68.75
2022-11-24T14:16:07.096Z,68.27
2022-11-24T14:18:39.179Z,68.22
2022-11-24T14:21:24.995Z,67.53
2022-11-24T14:23:57.262Z,67.62
2022-11-24T14:26:32.529Z,67.80
2022-11-24T14:29:08.707Z,67.85
2022-11-24T14:31:39.304Z,67.39
2022-11-24T14:34:21.161Z,67.58
2022-11-24T14:36:52.243Z,68.18
2022-11-24T14:39:26.937Z,68.27
2022-11-24T14:42:01.594Z,68.69
2022-11-24T14:44:35.843Z,68.69
2022-11-24T14:47:14.199Z,69.39
2022-11-24T14:49:46.455Z,69.88
2022-11-24T14:52:19.010Z,70.00
2022-11-24T14:54:51.516Z,70.19
2022-11-24T14:57:28.644Z,70.37
2022-11-24T15:00:19.288Z,71.25
2022-11-24T15:02:54.012Z,71.69
2022-11-24T15:05:25.783Z,71.54
2022-11-24T15:08:03.943Z,71.65
2022-11-24T15:10:36.844Z,72.06
2022-11-24T15:13:16.694Z,72.47
2022-11-24T15:15:49.775Z,72.92
2022-11-24T15:18:26.737Z,73.44
2022-11-24T15:20:58.711Z,73.88
2022-11-24T15:23:31.511Z,74.36
2022-11-24T15:26:36.707Z,74.92
2022-11-24T15:29:10.580Z,75.37
2022-11-24T15:31:41.600Z,75.73
2022-11-24T15:34:18.303Z,76.08
2022-11-24T15:36:48.698Z,76.42
2022-11-24T15:39:28.161Z,76.80
2022-11-24T15:42:05.847Z,77.07
2022-11-24T15:44:37.039Z,77.51
2022-11-24T15:47:07.786Z,77.82
2022-11-24T15:49:38.323Z,78.07
2022-11-24T15:52:08.794Z,78.25
2022-11-24T15:54:39.370Z,78.55
2022-11-24T15:57:12.784Z,78.88
2022-11-24T15:59:43.213Z,79.04
2022-11-24T16:02:13.984Z,79.27
2022-11-24T16:04:44.490Z,79.53
2022-11-24T16:07:16.979Z,79.79
2022-11-24T16:09:47.612Z,79.98
2022-11-24T16:12:19.633Z,80.32
2022-11-24T16:14:50.137Z,80.57
2022-11-24T16:17:22.085Z,80.75
2022-11-24T16:20:00.117Z,80.95
2022-11-24T16:22:31.459Z,81.19
2022-11-24T16:25:02.835Z,81.44
2022-11-24T16:27:33.429Z,81.61
2022-11-24T16:30:05.563Z,81.91
2022-11-24T16:32:36.197Z,82.13
2022-11-24T16:35:07.430Z,82.28
2022-11-24T16:37:39.868Z,82.51
2022-11-24T16:40:12.132Z,82.68
2022-11-24T16:42:46.580Z,82.85
2022-11-24T16:45:17.957Z,82.89
2022-11-24T16:47:48.405Z,83.04
2022-11-24T16:50:19.205Z,83.17
2022-11-24T16:53:15.387Z,83.15
2022-11-24T16:55:45.739Z,83.16
2022-11-24T16:58:18.613Z,83.31
2022-11-24T17:00:49.026Z,83.51
2022-11-24T17:03:20.108Z,83.77
2022-11-24T17:05:59.789Z,83.92
2022-11-24T17:08:32.911Z,83.99
2022-11-24T17:11:08.964Z,83.99
2022-11-24T17:13:39.677Z,84.09
2022-11-24T17:16:11.901Z,84.18
2022-11-24T17:18:42.974Z,84.19
2022-11-24T17:21:19.882Z,84.33
2022-11-24T17:23:53.464Z,84.52
2022-11-24T17:26:24.980Z,84.61
2022-11-24T17:28:55.897Z,84.73
2022-11-24T17:31:29.251Z,84.84
2022-11-24T17:34:01.120Z,85.01
2022-11-24T17:36:33.514Z,85.16
2022-11-24T17:39:06.410Z,85.36
2022-11-24T17:41:37.005Z,85.58
2022-11-24T17:44:11.406Z,85.69
2022-11-24T17:46:41.999Z,85.80
2022-11-24T17:49:15.404Z,85.89
2022-11-24T17:51:50.306Z,85.96
2022-11-24T17:57:11.279Z,86.14
2022-11-24T17:59:41.898Z,86.20
2022-11-24T18:02:12.689Z,86.32
2022-11-24T18:04:43.909Z,86.33
2022-11-24T18:07:14.415Z,86.37
2022-11-24T18:09:45.026Z,86.40
2022-11-24T18:12:15.415Z,86.33
2022-11-24T18:14:47.039Z,86.51
2022-11-24T18:17:17.460Z,86.67
2022-11-24T18:19:47.980Z,86.81
2022-11-24T18:22:20.976Z,86.86
2022-11-24T18:24:57.641Z,87.14
2022-11-24T18:27:31.930Z,87.42
2022-11-24T18:30:02.661Z,87.82
2022-11-24T18:32:34.289Z,88.14
2022-11-24T18:35:04.934Z,88.54
2022-11-24T18:37:39.895Z,88.78
2022-11-24T18:40:16.015Z,89.18
2022-11-24T18:42:46.484Z,88.65
2022-11-24T18:45:21.044Z,88.60
2022-11-24T18:47:51.493Z,88.46
2022-11-24T18:50:23.056Z,88.32
2022-11-24T18:52:55.304Z,88.18
2022-11-24T18:55:26.330Z,88.13
2022-11-24T18:57:57.415Z,88.28
2022-11-24T19:00:28.019Z,88.11
2022-11-24T19:03:00.385Z,87.64
2022-11-24T19:05:32.085Z,87.21
2022-11-24T19:08:04.694Z,86.89
2022-11-24T19:10:39.322Z,86.57
2022-11-24T19:13:12.935Z,86.29
2022-11-24T19:15:44.180Z,86.31
2022-11-24T19:18:16.463Z,86.29
2022-11-24T19:20:49.210Z,86.43
2022-11-24T19:23:21.434Z,86.56
2022-11-24T19:25:53.344Z,86.56
2022-11-24T19:28:25.692Z,86.52
2022-11-24T19:31:00.998Z,86.46
2022-11-24T19:33:33.748Z,86.62
2022-11-24T19:36:11.834Z,86.77
2022-11-24T19:38:44.291Z,86.75
2022-11-24T19:41:17.322Z,86.81
2022-11-24T19:43:47.317Z,86.79
2022-11-24T19:46:21.224Z,86.80
2022-11-24T19:48:56.142Z,86.83
2022-11-24T19:51:31.177Z,86.84
2022-11-24T19:54:04.341Z,86.85
2022-11-24T19:56:41.245Z,87.20
2022-11-24T20:09:20.065Z,87.42
2022-11-24T20:11:50.578Z,87.41
2022-11-24T20:14:22.524Z,87.73
2022-11-24T20:16:53.071Z,87.88
2022-11-24T20:19:23.625Z,87.93
2022-11-24T20:21:55.384Z,88.27
2022-11-24T20:24:26.115Z,88.39
2022-11-24T20:27:00.114Z,88.86
2022-11-24T20:29:33.661Z,89.18
2022-11-24T20:32:04.140Z,89.43
2022-11-24T20:34:37.413Z,89.39
2022-11-24T20:37:13.229Z,89.29
2022-11-24T20:39:43.611Z,89.14
2022-11-24T20:42:14.274Z,89.22
2022-11-24T20:44:44.749Z,89.26
2022-11-24T20:47:15.187Z,89.32
2022-11-24T20:49:45.772Z,89.33
2022-11-24T20:52:17.281Z,89.26
2022-11-24T20:54:47.752Z,88.99
2022-11-24T20:57:18.383Z,88.76
2022-11-24T20:59:49.510Z,88.63
2022-11-24T21:02:21.067Z,88.19
2022-11-24T21:04:51.608Z,87.80
2022-11-24T21:07:22.218Z,87.55
2022-11-24T21:09:52.934Z,87.65
2022-11-24T21:12:23.714Z,87.77
2022-11-24T21:14:54.270Z,87.81
2022-11-24T21:17:24.739Z,87.84
2022-11-24T21:19:59.670Z,87.67
2022-11-24T21:22:31.603Z,87.56
2022-11-24T21:25:02.086Z,87.51
2022-11-24T21:27:32.599Z,87.32
2022-11-24T21:30:03.289Z,87.05
2022-11-24T21:32:33.923Z,86.71
2022-11-24T21:35:04.506Z,86.60
2022-11-24T21:37:34.941Z,86.70
2022-11-24T21:40:06.561Z,86.89
2022-11-24T21:42:37.208Z,86.89
2022-11-24T21:45:11.488Z,86.86
2022-11-24T21:47:42.482Z,86.93
2022-11-24T21:50:13.755Z,86.90
2022-11-24T21:52:44.307Z,86.82
2022-11-24T21:55:14.780Z,86.68
2022-11-24T21:57:45.188Z,86.46
2022-11-24T22:00:17.977Z,86.37
2022-11-24T22:02:50.382Z,86.30
2022-11-24T22:05:20.967Z,86.19
2022-11-24T22:07:51.505Z,86.10
2022-11-24T22:10:22.004Z,85.80
2022-11-24T22:12:52.543Z,85.73
2022-11-24T22:15:22.992Z,85.74
2022-11-24T22:17:53.405Z,85.76
2022-11-24T22:20:23.942Z,85.54
2022-11-24T22:22:54.890Z,85.43
2022-11-24T22:25:25.334Z,85.07
2022-11-24T22:27:56.784Z,84.99
2022-11-24T22:30:27.305Z,85.09
2022-11-24T22:32:57.983Z,85.23
2022-11-24T22:35:28.522Z,85.44
2022-11-24T22:37:58.946Z,85.74
2022-11-24T22:40:29.504Z,85.84
2022-11-24T22:43:00.289Z,85.97
2022-11-24T22:45:30.772Z,86.25
2022-11-24T22:48:01.276Z,86.55
2022-11-24T22:50:31.718Z,86.67
2022-11-24T22:57:34.640Z,86.87
2022-11-24T23:00:05.808Z,86.94
2022-11-24T23:02:36.293Z,87.10
2022-11-24T23:05:07.656Z,87.24
2022-11-24T23:07:38.325Z,87.40
2022-11-24T23:10:10.640Z,87.50
2022-11-24T23:12:41.154Z,87.26
2022-11-24T23:15:12.436Z,87.19
2022-11-24T23:17:42.941Z,87.33
2022-11-24T23:20:16.313Z,87.63
2022-11-24T23:22:46.930Z,87.89
2022-11-24T23:25:17.741Z,88.02
2022-11-24T23:27:48.237Z,88.19
2022-11-24T23:30:19.265Z,88.10
2022-11-24T23:32:49.754Z,88.13
2022-11-24T23:35:23.679Z,88.26
2022-11-24T23:38:08.263Z,88.34
2022-11-24T23:40:38.814Z,88.53
2022-11-24T23:43:09.282Z,88.85
2022-11-24T23:45:39.876Z,88.84
2022-11-24T23:48:10.286Z,88.89
2022-11-24T23:50:40.763Z,88.92
2022-11-24T23:53:11.263Z,89.22
2022-11-24T23:55:41.906Z,89.33
2022-11-24T23:58:12.504Z,89.45
